Latest Coastal Weather Observations for Broome Port

IDW60701

Issued at 8:32 am WST Tuesday 28 April 2015 (issued every 10 minutes, with the page automatically refreshed every 10 minutes)

About coastal observations | Map of coastal stations | Coastal observations for WA | Marine services | Other Formats
Station Details ID: 003102 Name: BROOME NTC AWS Lat: -18.00 Lon: 122.22 Height: 0.0 m
Data from the previous 72 hours. | See also: Recent months for locations in Western Australia
Date/Time
WST
Temp

°C
Wind Pressure Rain
since 9am
mm
Weather Cloud Vis
km
Sea
Height
m
Swell
Dir
 
Speed
knots
Gust
knots
hPa Trend Height
m
Period
s
Dir
28/08:30am 22.3 ESE 10 12 1014.9 - - - - - - - - -
28/08:00am 22.0 ESE 12 14 1014.8 - - - - - - - - -
28/07:30am 22.3 ESE 15 18 1014.6 - - - - - - - - -
28/07:00am 22.1 ESE 14 16 1014.5 - - - - - - - - -
28/06:30am 21.8 ESE 13 16 1014.4 - - - - - - - - -
28/06:00am 21.8 ESE 14 17 1014.0 - - - - - - - - -
28/05:30am 21.9 ESE 15 19 1013.7 - - - - - - - - -
28/05:00am 21.9 ESE 16 19 1013.6 - - - - - - - - -
28/04:30am 22.0 ESE 17 22 1013.4 - - - - - - - - -
28/04:00am 22.2 ESE 18 21 1013.5 - - - - - - - - -
28/03:30am 22.8 ESE 17 22 1013.5 - - - - - - - - -
28/03:00am 23.5 SE 19 23 1013.6 - - - - - - - - -
28/02:30am 23.6 SE 22 25 1013.6 - - - - - - - - -
28/02:00am 24.2 SE 20 24 1013.7 - - - - - - - - -
28/01:30am 24.5 SE 22 25 1013.8 - - - - - - - - -
28/01:00am 24.8 SE 21 27 1014.0 - - - - - - - - -
28/12:30am 25.3 SE 21 25 1014.2 - - - - - - - - -
28/12:00am 25.5 SE 22 26 1014.7 - - - - - - - - -
 
Date/Time
WST
Temp

°C
Wind Pressure Rain
since 9am
mm
Weather Cloud Vis
km
Sea
Height
m
Swell
Dir
 
Speed
knots
Gust
knots
hPa Trend Height
m
Period
s
Dir
27/11:30pm 25.6 SE 21 24 1014.9 - - - - - - - - -
27/11:00pm 25.9 SE 19 23 1015.1 - - - - - - - - -
27/10:30pm 25.8 SE 19 22 1015.1 - - - - - - - - -
27/10:00pm 26.8 SSE 17 20 1015.2 - - - - - - - - -
27/09:30pm 27.4 SE 17 21 1015.0 - - - - - - - - -
27/09:00pm 26.9 SE 17 21 1014.8 - - - - - - - - -
27/08:30pm 26.8 SSE 17 20 1014.7 - - - - - - - - -
27/08:00pm 26.9 SSE 18 21 1014.4 - - - - - - - - -
27/07:30pm 27.5 SSE 18 20 1014.3 - - - - - - - - -
27/07:00pm 27.6 SSE 17 20 1013.9 - - - - - - - - -
27/06:30pm 28.0 SSE 19 21 1013.7 - - - - - - - - -
27/06:00pm 28.2 SSE 16 19 1013.3 - - - - - - - - -
27/05:30pm 28.8 SSE 15 17 1012.9 - - - - - - - - -
27/05:00pm 28.9 SSE 16 18 1012.7 - - - - - - - - -
27/04:30pm 29.5 SSE 15 16 1012.4 - - - - - - - - -
27/04:00pm 30.0 SSE 14 17 1012.2 - - - - - - - - -
27/03:30pm 29.4 SSE 13 14 1012.0 - - - - - - - - -
27/03:00pm 29.9 SSE 6 8 1011.8 - - - - - - - - -
27/02:30pm 30.2 SSE 6 8 1011.7 - - - - - - - - -
27/02:00pm 29.6 SSE 7 8 1011.7 - - - - - - - - -
27/01:30pm 29.0 ESE 8 11 1011.9 - - - - - - - - -
27/01:00pm 29.3 ESE 11 13 1012.2 - - - - - - - - -
27/12:30pm 29.5 ESE 15 17 1012.7 - - - - - - - - -
27/12:00pm 28.9 ESE 15 18 1013.2 - - - - - - - - -
27/11:30am 28.7 ESE 16 18 1013.7 - - - - - - - - -
27/11:00am 28.3 ESE 17 19 1014.2 - - - - - - - - -
27/10:30am 27.7 ESE 17 20 1014.3 - - - - - - - - -
27/10:00am 27.4 ESE 17 20 1014.7 - - - - - - - - -
27/09:30am 26.6 ESE 18 20 1015.0 - - - - - - - - -
27/09:00am 25.9 ESE 18 21 1015.0 - - - - - - - - -
27/08:30am 25.2 ESE 13 19 1014.8 - - - - - - - - -
27/08:00am 24.4 ESE 15 21 1014.4 - - - - - - - - -
27/07:30am 24.3 ESE 13 19 1014.1 - - - - - - - - -
27/07:00am 24.0 ESE 14 20 1014.0 - - - - - - - - -
27/06:30am 24.7 ESE 17 20 1013.6 - - - - - - - - -
27/06:00am 24.9 ESE 14 18 1013.4 - - - - - - - - -
27/05:30am 24.8 ESE 13 17 1013.0 - - - - - - - - -
27/05:00am 24.7 ESE 13 14 1012.7 - - - - - - - - -
27/04:30am 25.1 ESE 12 14 1012.7 - - - - - - - - -
27/04:00am 25.6 ESE 13 15 1012.6 - - - - - - - - -
27/03:30am 25.7 ESE 13 15 1012.4 - - - - - - - - -
27/03:00am 25.9 ESE 13 17 1012.5 - - - - - - - - -
27/02:30am 26.2 ESE 12 17 1012.6 - - - - - - - - -
27/02:00am 26.4 ESE 11 14 1012.8 - - - - - - - - -
27/01:30am 26.5 SE 12 15 1012.9 - - - - - - - - -
27/01:00am 26.7 SE 11 13 1013.0 - - - - - - - - -
27/12:30am 26.6 ESE 6 11 1013.3 - - - - - - - - -
27/12:00am 26.4 E 5 9 1013.5 - - - - - - - - -
 
Date/Time
WST
Temp

°C
Wind Pressure Rain
since 9am
mm
Weather Cloud Vis
km
Sea
Height
m
Swell
Dir
 
Speed
knots
Gust
knots
hPa Trend Height
m
Period
s
Dir
26/11:30pm 26.4 ENE 3 7 1013.7 - - - - - - - - -
26/11:00pm 26.1 ENE 3 7 1013.7 - - - - - - - - -
26/10:30pm 26.4 E 5 7 1013.6 - - - - - - - - -
26/10:00pm 25.8 E 5 7 1013.5 - - - - - - - - -
26/09:30pm 27.1 E 5 9 1013.6 - - - - - - - - -
26/09:00pm 27.2 ESE 7 11 1013.7 - - - - - - - - -
26/08:30pm 27.5 SE 13 16 1013.5 - - - - - - - - -
26/08:00pm 28.2 SSE 15 17 1013.5 - - - - - - - - -
26/07:30pm 28.6 SSE 15 17 1013.3 - - - - - - - - -
26/07:00pm 28.6 SSE 13 14 1013.0 - - - - - - - - -
26/06:30pm 28.9 SSE 13 15 1012.6 - - - - - - - - -
26/06:00pm 29.3 SSE 13 15 1012.2 - - - - - - - - -
26/05:30pm 29.5 SSE 14 15 1012.0 - - - - - - - - -
26/05:00pm 29.8 SSE 15 16 1011.5 - - - - - - - - -
26/04:30pm 29.5 SSE 8 10 1011.2 - - - - - - - - -
26/04:00pm 29.6 SE 6 7 1010.8 - - - - - - - - -
26/03:30pm 30.5 ESE 8 9 1010.7 - - - - - - - - -
26/03:00pm 30.6 ESE 10 11 1010.6 - - - - - - - - -
26/02:30pm 30.6 ESE 11 12 1010.6 - - - - - - - - -
26/02:00pm 30.9 E 14 15 1010.7 - - - - - - - - -
26/01:30pm 30.5 E 13 16 1010.8 - - - - - - - - -
26/01:00pm 29.3 ESE 11 13 1010.9 - - - - - - - - -
26/12:30pm 29.7 ESE 13 14 1011.3 - - - - - - - - -
26/12:00pm 29.5 E 16 20 1011.6 - - - - - - - - -
26/11:30am 28.6 ESE 15 19 1012.0 - - - - - - - - -
26/11:00am 28.6 ESE 19 23 1012.2 - - - - - - - - -
26/10:30am 27.9 ESE 16 19 1012.6 - - - - - - - - -
26/10:00am 27.2 ESE 18 20 1013.0 - - - - - - - - -
26/09:30am 26.9 ESE 18 21 1013.3 - - - - - - - - -
26/09:00am 26.5 ESE 17 20 1013.4 - - - - - - - - -
26/08:30am 26.1 ESE 16 20 1013.1 - - - - - - - - -
26/08:00am 25.9 ESE 17 20 1012.8 - - - - - - - - -
26/07:30am 26.0 SE 19 23 1012.5 - - - - - - - - -
26/07:00am 26.2 SE 19 22 1012.4 - - - - - - - - -
26/06:30am 26.6 SE 19 23 1012.1 - - - - - - - - -
26/06:00am 26.8 SE 18 21 1011.8 - - - - - - - - -
26/05:30am 27.2 SE 17 20 1011.7 - - - - - - - - -
26/05:00am 27.1 SE 15 17 1011.5 - - - - - - - - -
26/04:30am 27.3 SE 16 19 1011.2 - - - - - - - - -
26/04:00am 27.3 SE 16 18 1011.3 - - - - - - - - -
26/03:30am 27.4 SE 15 18 1011.4 - - - - - - - - -
26/03:00am 27.4 SE 15 16 1011.4 - - - - - - - - -
26/02:30am 27.7 SE 13 15 1011.6 - - - - - - - - -
26/02:00am 27.8 SE 14 16 1011.6 - - - - - - - - -
26/01:30am 27.7 SE 13 15 1011.8 - - - - - - - - -
26/01:00am 27.8 SE 15 17 1011.8 - - - - - - - - -
26/12:30am 28.0 SSE 14 17 1012.2 - - - - - - - - -
26/12:00am 27.9 SSE 16 19 1012.1 - - - - - - - - -
 
Date/Time
WST
Temp

°C
Wind Pressure Rain
since 9am
mm
Weather Cloud Vis
km
Sea
Height
m
Swell
Dir
 
Speed
knots
Gust
knots
hPa Trend Height
m
Period
s
Dir
25/11:30pm 27.9 SSE 16 21 1012.4 - - - - - - - - -
25/11:00pm 28.1 SSE 14 17 1012.4 - - - - - - - - -
25/10:30pm 28.2 SSE 12 16 1012.5 - - - - - - - - -
25/10:00pm 28.4 SSE 12 13 1012.5 - - - - - - - - -
25/09:30pm 27.7 SSE 9 10 1012.7 - - - - - - - - -
25/09:00pm 28.2 SSE 8 9 1012.8 - - - - - - - - -
25/08:30pm 28.4 S 10 11 1012.7 - - - - - - - - -
25/08:00pm 29.1 SE 10 13 1012.5 - - - - - - - - -
25/07:30pm 28.4 SSE 9 11 1012.4 - - - - - - - - -
25/07:00pm 28.9 SSE 10 11 1012.0 - - - - - - - - -
25/06:30pm 29.7 SSE 7 8 1011.7 - - - - - - - - -
25/06:00pm 29.9 SE 7 8 1011.4 - - - - - - - - -
25/05:30pm 30.0 SE 10 11 1011.2 - - - - - - - - -
25/05:00pm 29.8 SE 11 11 1010.8 - - - - - - - - -
25/04:30pm 30.1 SE 11 12 1010.3 - - - - - - - - -
25/04:00pm 30.2 SE 12 12 1010.1 - - - - - - - - -
25/03:30pm 29.8 SE 11 13 1009.8 - - - - - - - - -
25/03:00pm 29.6 ESE 11 13 1009.5 - - - - - - - - -
25/02:30pm 30.2 ESE 12 14 1009.6 - - - - - - - - -
25/02:00pm 29.7 ESE 11 13 1009.6 - - - - - - - - -
25/01:30pm 29.9 ESE 13 15 1009.7 - - - - - - - - -
25/01:00pm 29.6 ESE 13 15 1009.9 - - - - - - - - -
25/12:30pm 29.1 ESE 15 19 1010.2 - - - - - - - - -
25/12:00pm 29.0 ESE 14 17 1010.5 - - - - - - - - -
25/11:30am 28.5 ESE 12 14 1011.0 - - - - - - - - -
25/11:00am 28.3 SE 15 18 1011.5 - - - - - - - - -
25/10:30am 27.9 SE 18 21 1011.6 - - - - - - - - -
25/10:00am 27.9 SE 20 24 1011.8 - - - - - - - - -
25/09:30am 27.8 SE 20 24 1011.9 - - - - - - - - -
25/09:00am 27.9 SE 22 26 1011.9 - - - - - - - - -

Other Formats:

Comma delimited format used in spreadsheet applications
http://www.bom.gov.au/fwo/IDW60701/IDW60701.95202.axf

JavaScript Object Notation format (JSON) in row-major order
http://www.bom.gov.au/fwo/IDW60701/IDW60701.95202.json